createdAt,value
2019-02-21T00:03:59.891Z,19.30
2019-02-21T00:09:05.121Z,22.23
2019-02-21T00:14:09.338Z,23.70
2019-02-21T00:19:13.393Z,23.40
2019-02-21T00:24:17.440Z,25.40
2019-02-21T00:29:21.478Z,21.57
2019-02-21T00:34:25.543Z,24.83
2019-02-21T00:39:29.553Z,21.97
2019-02-21T00:44:33.579Z,25.03
2019-02-21T00:49:37.602Z,24.13
2019-02-21T00:54:41.629Z,24.43
2019-02-21T00:59:45.672Z,21.63
2019-02-21T01:04:49.754Z,17.80
2019-02-21T01:09:53.855Z,16.83
2019-02-21T01:14:57.869Z,21.60
2019-02-21T01:20:01.900Z,22.53
2019-02-21T01:25:06.543Z,28.10
2019-02-21T01:30:10.795Z,19.90
2019-02-21T01:35:14.802Z,22.43
2019-02-21T01:40:18.850Z,26.27
2019-02-21T01:45:22.911Z,20.50
2019-02-21T01:50:26.944Z,20.73
2019-02-21T01:55:30.955Z,24.57
2019-02-21T02:00:35.049Z,17.40
2019-02-21T02:05:39.049Z,20.10
2019-02-21T02:10:43.111Z,32.90
2019-02-21T02:15:47.138Z,23.83
2019-02-21T02:20:51.169Z,19.33
2019-02-21T02:25:55.193Z,19.80
2019-02-21T02:30:59.221Z,26.27
2019-02-21T02:36:03.237Z,23.90
2019-02-21T02:41:07.274Z,25.23
2019-02-21T02:46:11.289Z,25.47
2019-02-21T02:51:15.343Z,29.93
2019-02-21T02:56:19.355Z,25.83
2019-02-21T03:01:34.363Z,29.63
2019-02-21T03:06:29.129Z,33.60
2019-02-21T03:11:33.154Z,32.67
2019-02-21T03:16:37.185Z,31.70
2019-02-21T03:21:42.133Z,34.47
2019-02-21T03:26:46.167Z,28.40
2019-02-21T03:31:54.925Z,37.80
2019-02-21T03:36:55.982Z,36.17
2019-02-21T03:42:00.012Z,36.00
2019-02-21T03:47:04.050Z,37.53
2019-02-21T03:52:08.077Z,38.40
2019-02-21T03:57:12.166Z,38.70
2019-02-21T04:02:16.283Z,35.63
2019-02-21T04:07:21.816Z,38.90
2019-02-21T04:12:26.279Z,40.27
2019-02-21T04:17:30.317Z,42.67
2019-02-21T04:22:34.329Z,45.90
2019-02-21T04:27:38.349Z,42.97
2019-02-21T04:32:42.380Z,47.53
2019-02-21T04:37:46.426Z,45.03
2019-02-21T04:42:50.551Z,49.67
2019-02-21T04:47:54.591Z,46.33
2019-02-21T04:52:58.674Z,47.83
2019-02-21T04:58:02.691Z,53.87
2019-02-21T05:03:06.717Z,56.07
2019-02-21T05:08:10.748Z,46.50
2019-02-21T05:13:14.778Z,49.57
2019-02-21T05:18:18.800Z,57.93
2019-02-21T05:23:22.823Z,53.80
2019-02-21T05:28:30.988Z,54.20
2019-02-21T05:33:57.022Z,58.30
2019-02-21T05:39:10.492Z,61.40
2019-02-21T05:44:45.468Z,62.33
2019-02-21T05:50:08.275Z,59.33
2019-02-21T05:55:24.043Z,58.30
2019-02-21T06:00:39.039Z,62.57
2019-02-21T06:06:05.109Z,66.90
2019-02-21T06:11:30.870Z,57.83
2019-02-21T06:16:56.055Z,58.53
2019-02-21T06:22:28.086Z,60.07
2019-02-21T06:27:39.025Z,62.53
2019-02-21T06:32:43.048Z,65.77
2019-02-21T06:37:47.079Z,64.60
2019-02-21T06:42:51.113Z,64.77
2019-02-21T06:47:55.115Z,59.77
2019-02-21T06:52:59.410Z,59.20
2019-02-21T06:58:03.449Z,63.57
2019-02-21T07:03:15.513Z,63.27
2019-02-21T07:08:13.246Z,61.50
2019-02-21T07:13:26.156Z,53.70
2019-02-21T07:18:23.068Z,59.47
2019-02-21T07:23:27.752Z,67.60
2019-02-21T07:28:31.805Z,58.27
2019-02-21T07:33:35.859Z,65.50
2019-02-21T07:38:39.882Z,63.77
2019-02-21T07:43:43.933Z,57.07
2019-02-21T07:48:47.959Z,53.70
2019-02-21T07:53:52.008Z,49.20
2019-02-21T07:58:57.685Z,51.20
2019-02-21T08:04:01.731Z,55.50
2019-02-21T08:09:07.050Z,47.83
2019-02-21T08:14:11.079Z,54.53
2019-02-21T08:19:15.130Z,52.80
2019-02-21T08:24:19.150Z,72.20
2019-02-21T08:29:23.212Z,57.63
2019-02-21T08:34:32.050Z,57.50
2019-02-21T08:39:36.080Z,66.37
2019-02-21T08:44:40.129Z,57.90
2019-02-21T08:49:44.136Z,56.83
2019-02-21T08:54:48.166Z,55.37
2019-02-21T08:59:52.178Z,57.37
2019-02-21T09:04:56.249Z,56.23
2019-02-21T09:10:00.386Z,54.80
2019-02-21T09:15:04.981Z,59.67
2019-02-21T09:20:09.834Z,61.40
2019-02-21T09:25:13.901Z,62.07
2019-02-21T09:30:18.727Z,54.27
2019-02-21T09:35:22.737Z,57.07
2019-02-21T09:40:28.502Z,55.73
2019-02-21T09:45:33.199Z,46.27
2019-02-21T09:50:37.355Z,54.57
2019-02-21T09:55:41.401Z,56.43
2019-02-21T10:00:45.444Z,49.73
2019-02-21T10:05:49.953Z,56.27
2019-02-21T10:10:54.168Z,50.07
2019-02-21T10:15:58.290Z,48.77
2019-02-21T10:21:02.627Z,47.93
2019-02-21T10:26:06.753Z,47.67
2019-02-21T10:31:10.762Z,49.00
2019-02-21T10:36:14.791Z,50.80
2019-02-21T10:41:18.959Z,43.93
2019-02-21T10:46:23.098Z,41.90
2019-02-21T10:51:27.138Z,39.40
2019-02-21T10:56:31.171Z,43.00
2019-02-21T11:01:35.195Z,35.37
2019-02-21T11:06:39.235Z,40.33
2019-02-21T11:11:43.288Z,36.60
2019-02-21T11:16:47.330Z,34.73
2019-02-21T11:21:51.392Z,31.23
2019-02-21T11:26:55.571Z,35.85
2019-02-21T11:31:59.601Z,41.87
2019-02-21T11:37:06.880Z,33.37
2019-02-21T11:42:10.996Z,34.55
2019-02-21T11:47:15.051Z,34.50
2019-02-21T11:52:19.095Z,33.08
2019-02-21T11:57:23.423Z,31.65
2019-02-21T12:02:27.456Z,31.23
2019-02-21T12:07:31.549Z,31.40
2019-02-21T12:12:42.671Z,36.65
2019-02-21T12:17:46.790Z,29.30
2019-02-21T12:22:50.887Z,26.73
2019-02-21T12:27:55.039Z,32.05
2019-02-21T12:32:59.129Z,30.90
2019-02-21T12:38:03.187Z,29.07
2019-02-21T12:43:07.398Z,27.37
2019-02-21T12:48:14.018Z,31.97
2019-02-21T12:53:17.779Z,25.83
2019-02-21T12:58:21.804Z,25.53
2019-02-21T13:03:25.960Z,25.95
2019-02-21T13:08:29.989Z,26.27
2019-02-21T13:13:34.063Z,22.20
2019-02-21T13:18:38.304Z,27.90
2019-02-21T13:23:43.024Z,26.40
2019-02-21T13:28:47.233Z,21.80
2019-02-21T13:33:51.274Z,21.80
2019-02-21T13:38:55.313Z,19.92
2019-02-21T13:43:59.331Z,19.37
2019-02-21T13:49:03.361Z,19.27
2019-02-21T13:54:07.406Z,23.30
2019-02-21T13:59:11.447Z,19.00
2019-02-21T14:04:15.505Z,18.17
2019-02-21T14:09:19.633Z,25.97
2019-02-21T14:14:23.676Z,22.43
2019-02-21T14:19:27.740Z,21.00
2019-02-21T14:24:36.804Z,23.87
2019-02-21T14:29:39.542Z,18.75
2019-02-21T14:34:43.287Z,20.83
2019-02-21T14:39:48.299Z,22.27
2019-02-21T14:44:52.381Z,24.20
2019-02-21T14:49:56.370Z,24.80
2019-02-21T14:55:00.512Z,21.77
2019-02-21T15:00:05.620Z,27.17
2019-02-21T15:05:10.189Z,21.73
2019-02-21T15:10:15.648Z,28.63
2019-02-21T15:15:21.955Z,28.40
2019-02-21T15:20:36.268Z,22.53
2019-02-21T15:25:31.626Z,20.17
2019-02-21T15:30:35.671Z,19.67
2019-02-21T15:35:39.735Z,22.73
2019-02-21T15:40:43.745Z,25.93
2019-02-21T15:45:47.830Z,26.40
2019-02-21T15:50:51.857Z,27.60
2019-02-21T15:55:55.897Z,22.27
2019-02-21T16:00:59.929Z,25.27
2019-02-21T16:06:04.182Z,24.23
2019-02-21T16:11:08.227Z,19.13
2019-02-21T16:16:12.625Z,18.73
2019-02-21T16:21:16.797Z,19.83
2019-02-21T16:26:20.860Z,28.97
2019-02-21T16:31:24.914Z,26.90
2019-02-21T16:36:28.963Z,20.27
2019-02-21T16:41:36.385Z,21.27
2019-02-21T16:46:38.932Z,20.90
2019-02-21T16:51:43.004Z,24.80
2019-02-21T16:56:47.160Z,24.90
2019-02-21T17:01:51.248Z,18.73
2019-02-21T17:06:55.353Z,25.00
2019-02-21T17:11:59.398Z,23.83
2019-02-21T17:17:03.422Z,31.70
2019-02-21T17:22:07.475Z,29.63
2019-02-21T17:27:11.728Z,27.47
2019-02-21T17:32:15.791Z,23.03
2019-02-21T17:37:24.898Z,29.97
2019-02-21T17:42:25.810Z,28.17
2019-02-21T17:47:32.599Z,26.30
2019-02-21T17:52:35.805Z,27.37
2019-02-21T17:57:39.896Z,29.83
2019-02-21T18:02:43.933Z,24.90
2019-02-21T18:07:48.218Z,29.73
2019-02-21T18:12:52.398Z,33.60
2019-02-21T18:17:56.503Z,34.20
2019-02-21T18:23:00.575Z,35.80
2019-02-21T18:28:04.569Z,43.87
2019-02-21T18:33:08.606Z,50.27
2019-02-21T18:38:12.650Z,45.93
2019-02-21T18:43:16.735Z,54.00
2019-02-21T18:48:20.758Z,60.57
2019-02-21T18:53:24.793Z,56.40
2019-02-21T18:58:28.831Z,58.27
2019-02-21T19:03:32.917Z,75.27
2019-02-21T19:08:37.109Z,79.43
2019-02-21T19:13:41.096Z,74.53
2019-02-21T19:18:45.152Z,75.60
2019-02-21T19:23:49.264Z,70.40
2019-02-21T19:28:53.446Z,68.90
2019-02-21T19:33:57.544Z,116.80
2019-02-21T19:39:01.578Z,68.60
2019-02-21T19:44:08.829Z,78.97
2019-02-21T19:49:11.742Z,76.17
2019-02-21T19:54:15.821Z,80.60
2019-02-21T19:59:19.926Z,71.57
2019-02-21T20:04:24.066Z,82.67
2019-02-21T20:09:28.306Z,87.57
2019-02-21T20:14:32.517Z,85.47
2019-02-21T20:19:36.598Z,85.67
2019-02-21T20:24:40.774Z,90.73
2019-02-21T20:29:44.831Z,80.17
2019-02-21T20:34:48.941Z,86.07
2019-02-21T20:39:55.026Z,72.50
2019-02-21T20:44:58.796Z,74.23
2019-02-21T20:50:02.870Z,81.90
2019-02-21T20:55:06.947Z,80.93
2019-02-21T21:00:12.125Z,72.77
2019-02-21T21:05:16.219Z,82.47
2019-02-21T21:10:20.391Z,82.83
2019-02-21T21:15:24.461Z,81.97
2019-02-21T21:20:28.688Z,73.90
2019-02-21T21:25:32.754Z,80.50
2019-02-21T21:30:36.808Z,76.67
2019-02-21T21:35:40.850Z,72.07
2019-02-21T21:40:44.905Z,70.50
2019-02-21T21:45:48.930Z,65.23
2019-02-21T21:50:53.043Z,72.60
2019-02-21T21:55:57.072Z,80.63
2019-02-21T22:01:01.090Z,80.93
2019-02-21T22:06:05.205Z,75.87
2019-02-21T22:11:09.238Z,72.50
2019-02-21T22:16:13.268Z,67.93
2019-02-21T22:21:17.504Z,82.40
2019-02-21T22:26:22.176Z,76.43
2019-02-21T22:31:26.283Z,85.63
2019-02-21T22:36:30.318Z,77.87
2019-02-21T22:41:34.401Z,88.70
2019-02-21T22:46:38.373Z,78.83
2019-02-21T22:51:42.477Z,86.67
2019-02-21T22:56:46.588Z,80.10
2019-02-21T23:01:50.610Z,76.17
2019-02-21T23:07:01.921Z,86.83
2019-02-21T23:12:06.021Z,68.70
2019-02-21T23:17:10.043Z,67.70
2019-02-21T23:22:14.043Z,56.80
2019-02-21T23:27:18.045Z,54.27
2019-02-21T23:32:22.034Z,55.80
2019-02-21T23:37:26.069Z,45.87
2019-02-21T23:42:30.114Z,46.40
2019-02-21T23:47:34.130Z,45.70
2019-02-21T23:52:38.151Z,38.23
2019-02-21T23:57:42.177Z,45.13
